createdAt,value
2022-10-18T00:00:59.905Z,9.95
2022-10-18T00:03:26.998Z,11.25
2022-10-18T00:05:54.159Z,10.52
2022-10-18T00:08:21.690Z,10.27
2022-10-18T00:10:50.056Z,9.63
2022-10-18T00:13:17.952Z,10.52
2022-10-18T00:15:55.085Z,10.07
2022-10-18T00:18:23.266Z,9.45
2022-10-18T00:21:00.238Z,10.15
2022-10-18T00:23:29.235Z,10.23
2022-10-18T00:26:16.410Z,10.48
2022-10-18T00:28:45.347Z,9.88
2022-10-18T00:31:16.757Z,9.63
2022-10-18T00:33:51.534Z,10.13
2022-10-18T00:36:20.111Z,10.77
2022-10-18T00:38:48.379Z,10.68
2022-10-18T00:41:20.160Z,11.20
2022-10-18T00:44:05.221Z,10.07
2022-10-18T00:46:39.860Z,10.13
2022-10-18T00:49:15.420Z,10.18
2022-10-18T00:51:57.841Z,9.85
2022-10-18T00:54:27.738Z,9.75
2022-10-18T00:56:54.868Z,10.02
2022-10-18T00:59:23.399Z,11.02
2022-10-18T01:01:50.621Z,10.05
2022-10-18T01:04:22.151Z,10.48
2022-10-18T01:07:24.683Z,9.68
2022-10-18T01:10:25.568Z,10.48
2022-10-18T01:13:01.208Z,10.60
2022-10-18T01:15:36.708Z,11.10
2022-10-18T01:18:15.444Z,10.30
2022-10-18T01:21:13.177Z,10.02
2022-10-18T01:24:26.359Z,9.27
2022-10-18T01:27:15.196Z,9.13
2022-10-18T01:30:34.271Z,9.00
2022-10-18T01:33:27.640Z,9.50
2022-10-18T01:36:16.835Z,9.10
2022-10-18T01:38:47.475Z,9.55
2022-10-18T01:41:18.745Z,9.27
2022-10-18T01:43:50.832Z,9.00
2022-10-18T01:46:23.559Z,9.95
2022-10-18T01:48:56.269Z,9.80
2022-10-18T01:51:27.136Z,9.95
2022-10-18T01:53:54.847Z,9.40
2022-10-18T01:57:01.465Z,9.15
2022-10-18T02:00:06.675Z,9.30
2022-10-18T02:03:13.036Z,10.13
2022-10-18T02:05:48.676Z,9.77
2022-10-18T02:08:47.327Z,9.23
2022-10-18T02:11:17.411Z,9.02
2022-10-18T02:13:53.031Z,9.23
2022-10-18T02:16:28.240Z,9.10
2022-10-18T02:19:05.292Z,9.23
2022-10-18T02:21:33.428Z,9.65
2022-10-18T02:24:04.119Z,10.20
2022-10-18T02:26:31.395Z,10.18
2022-10-18T02:28:58.665Z,9.43
2022-10-18T02:31:33.032Z,10.23
2022-10-18T02:34:18.219Z,9.55
2022-10-18T02:36:59.976Z,9.75
2022-10-18T02:39:43.230Z,9.70
2022-10-18T02:42:12.009Z,10.55
2022-10-18T02:44:39.804Z,9.85
2022-10-18T02:47:09.357Z,10.65
2022-10-18T02:49:36.391Z,9.80
2022-10-18T02:52:03.670Z,9.20
2022-10-18T02:54:31.745Z,9.00
2022-10-18T02:56:58.767Z,8.90
2022-10-18T02:59:25.873Z,9.18
2022-10-18T03:01:54.041Z,9.50
2022-10-18T03:04:21.168Z,9.38
2022-10-18T03:06:48.316Z,9.93
2022-10-18T03:09:15.336Z,8.55
2022-10-18T03:11:42.414Z,9.35
2022-10-18T03:14:09.448Z,9.07
2022-10-18T03:16:36.569Z,10.45
2022-10-18T03:19:03.708Z,10.32
2022-10-18T03:21:30.813Z,11.10
2022-10-18T03:23:59.694Z,10.70
2022-10-18T03:26:26.760Z,11.05
2022-10-18T03:28:53.855Z,10.38
2022-10-18T03:31:21.971Z,9.73
2022-10-18T03:33:48.974Z,10.02
2022-10-18T03:36:15.998Z,9.00
2022-10-18T03:38:43.380Z,10.40
2022-10-18T03:41:10.511Z,10.95
2022-10-18T03:43:37.683Z,11.02
2022-10-18T03:46:05.056Z,10.60
2022-10-18T03:48:32.371Z,10.45
2022-10-18T03:50:59.558Z,11.10
2022-10-18T03:53:26.607Z,12.23
2022-10-18T03:55:55.459Z,10.23
2022-10-18T03:58:24.234Z,10.75
2022-10-18T04:00:55.400Z,9.95
2022-10-18T04:03:23.390Z,9.90
2022-10-18T04:05:51.125Z,10.68
2022-10-18T04:08:18.873Z,10.65
2022-10-18T04:10:46.514Z,11.48
2022-10-18T04:13:13.619Z,10.55
2022-10-18T04:15:41.819Z,10.20
2022-10-18T04:18:08.844Z,11.05
2022-10-18T04:20:35.936Z,10.50
2022-10-18T04:23:03.057Z,11.43
2022-10-18T04:25:30.194Z,11.18
2022-10-18T04:27:57.227Z,10.52
2022-10-18T04:30:24.176Z,13.13
2022-10-18T04:32:51.257Z,12.93
2022-10-18T04:35:19.706Z,13.95
2022-10-18T04:37:47.726Z,16.05
2022-10-18T04:40:14.832Z,21.10
2022-10-18T04:42:41.863Z,23.15
2022-10-18T04:45:09.672Z,27.63
2022-10-18T04:47:36.897Z,24.67
2022-10-18T04:50:05.515Z,27.33
2022-10-18T04:52:32.623Z,26.73
2022-10-18T04:54:59.655Z,27.20
2022-10-18T04:57:26.776Z,22.55
2022-10-18T04:59:53.723Z,27.95
2022-10-18T05:02:20.683Z,24.70
2022-10-18T05:04:47.715Z,20.35
2022-10-18T05:07:14.868Z,26.13
2022-10-18T05:09:41.832Z,29.70
2022-10-18T05:12:09.108Z,41.20
2022-10-18T05:14:36.157Z,46.35
2022-10-18T05:17:03.243Z,36.67
2022-10-18T05:19:30.255Z,25.42
2022-10-18T05:21:57.274Z,30.20
2022-10-18T05:24:27.021Z,35.60
2022-10-18T05:26:55.027Z,28.48
2022-10-18T05:29:22.332Z,30.85
2022-10-18T05:31:50.504Z,29.45
2022-10-18T05:34:18.459Z,34.55
2022-10-18T05:36:45.663Z,28.98
2022-10-18T05:39:12.784Z,37.45
2022-10-18T05:41:39.814Z,34.67
2022-10-18T05:44:07.290Z,30.60
2022-10-18T05:46:34.402Z,26.35
2022-10-18T05:49:01.505Z,28.30
2022-10-18T05:51:28.477Z,25.02
2022-10-18T05:53:55.487Z,25.17
2022-10-18T05:56:22.630Z,25.33
2022-10-18T05:58:51.657Z,24.27
2022-10-18T06:01:20.091Z,23.17
2022-10-18T06:03:47.575Z,22.98
2022-10-18T06:06:16.976Z,23.13
2022-10-18T06:08:44.672Z,22.75
2022-10-18T06:11:16.460Z,26.15
2022-10-18T06:13:46.752Z,25.90
2022-10-18T06:16:18.547Z,27.70
2022-10-18T06:18:52.231Z,31.00
2022-10-18T06:21:20.892Z,40.45
2022-10-18T06:23:55.705Z,29.33
2022-10-18T06:26:23.130Z,30.30
2022-10-18T06:28:50.508Z,24.92
2022-10-18T06:31:18.424Z,25.02
2022-10-18T06:33:48.231Z,42.13
2022-10-18T06:36:22.270Z,26.35
2022-10-18T06:38:50.572Z,25.88
2022-10-18T06:41:19.565Z,31.02
2022-10-18T06:43:51.892Z,24.65
2022-10-18T06:46:19.915Z,34.28
2022-10-18T06:48:48.047Z,30.58
2022-10-18T06:51:15.394Z,33.75
2022-10-18T06:53:44.575Z,29.65
2022-10-18T06:56:26.093Z,30.33
2022-10-18T06:58:54.200Z,21.05
2022-10-18T07:01:21.990Z,23.55
2022-10-18T07:03:53.395Z,24.02
2022-10-18T07:06:22.348Z,28.52
2022-10-18T07:08:52.780Z,26.55
2022-10-18T07:11:25.240Z,23.17
2022-10-18T07:13:54.755Z,20.25
2022-10-18T07:16:22.121Z,21.73
2022-10-18T07:18:51.429Z,19.70
2022-10-18T07:21:23.103Z,21.52
2022-10-18T07:23:51.667Z,20.02
2022-10-18T07:26:25.209Z,19.75
2022-10-18T07:29:01.541Z,23.42
2022-10-18T07:31:30.104Z,20.00
2022-10-18T07:33:57.426Z,20.98
2022-10-18T07:36:25.602Z,19.88
2022-10-18T07:38:53.679Z,18.35
2022-10-18T07:41:21.680Z,18.45
2022-10-18T07:43:51.706Z,16.60
2022-10-18T07:46:21.558Z,17.23
2022-10-18T07:48:50.677Z,17.50
2022-10-18T07:51:20.627Z,18.05
2022-10-18T07:53:48.461Z,17.80
2022-10-18T07:56:21.162Z,18.48
2022-10-18T07:58:51.864Z,17.67
2022-10-18T08:01:21.406Z,17.58
2022-10-18T08:03:49.364Z,17.02
2022-10-18T08:06:19.127Z,16.40
2022-10-18T08:08:47.113Z,16.10
2022-10-18T08:11:21.381Z,17.83
2022-10-18T08:16:20.473Z,16.65
2022-10-18T08:18:48.890Z,17.42
2022-10-18T08:21:17.751Z,16.52
2022-10-18T08:23:45.206Z,16.02
2022-10-18T08:26:20.062Z,17.67
2022-10-18T08:28:53.892Z,17.98
2022-10-18T08:31:27.592Z,17.10
2022-10-18T08:33:58.036Z,17.13
2022-10-18T08:36:26.064Z,17.05
2022-10-18T08:38:53.097Z,16.20
2022-10-18T08:42:30.174Z,15.35
2022-10-18T08:44:58.023Z,15.25
2022-10-18T08:47:41.948Z,15.38
2022-10-18T08:50:23.789Z,14.65
2022-10-18T08:52:53.633Z,12.35
2022-10-18T08:55:39.615Z,11.75
2022-10-18T08:58:33.613Z,12.50
2022-10-18T09:01:56.670Z,13.00
2022-10-18T09:05:04.357Z,12.18
2022-10-18T09:07:59.316Z,12.65
2022-10-18T09:14:03.434Z,11.15
2022-10-18T09:16:51.476Z,11.00
2022-10-18T09:19:45.114Z,10.70
2022-10-18T09:22:20.289Z,10.55
2022-10-18T09:25:14.319Z,10.02
2022-10-18T09:28:07.687Z,9.50
2022-10-18T09:31:17.446Z,9.18
2022-10-18T09:33:58.876Z,8.10
2022-10-18T09:36:35.556Z,7.85
2022-10-18T09:39:15.456Z,7.70
2022-10-18T09:41:59.146Z,6.07
2022-10-18T09:44:38.172Z,7.20
2022-10-18T09:47:33.735Z,7.25
2022-10-18T09:50:24.267Z,8.27
2022-10-18T09:53:12.869Z,6.68
2022-10-18T09:56:18.867Z,6.85
2022-10-18T09:58:49.712Z,6.63
2022-10-18T10:01:23.991Z,6.10
2022-10-18T10:03:52.428Z,5.68
2022-10-18T10:06:27.349Z,4.68
2022-10-18T10:09:18.272Z,4.82
2022-10-18T10:11:49.151Z,3.40
2022-10-18T10:14:26.210Z,3.80
2022-10-18T10:16:58.307Z,3.00
2022-10-18T10:19:32.149Z,2.60
2022-10-18T10:22:10.462Z,2.22
2022-10-18T10:24:51.188Z,2.40
2022-10-18T10:27:35.934Z,2.85
2022-10-18T10:30:22.539Z,2.40
2022-10-18T10:32:52.004Z,1.75
2022-10-18T10:38:29.535Z,1.63
2022-10-18T10:40:58.702Z,1.50
2022-10-18T10:43:40.027Z,1.50
2022-10-18T10:46:26.341Z,1.45
2022-10-18T10:49:21.679Z,1.25
2022-10-18T10:52:02.527Z,1.40
2022-10-18T10:54:39.841Z,1.70
2022-10-18T10:57:22.058Z,1.50
2022-10-18T10:59:53.758Z,1.42
2022-10-18T11:02:36.380Z,1.67
2022-10-18T11:05:29.462Z,1.63
2022-10-18T11:08:04.439Z,1.35
2022-10-18T11:10:50.074Z,1.20
2022-10-18T11:13:53.298Z,1.40
2022-10-18T11:16:56.220Z,1.10
2022-10-18T11:19:40.196Z,2.08
2022-10-18T11:22:18.479Z,1.90
2022-10-18T11:24:45.623Z,2.95
2022-10-18T11:27:29.314Z,2.40
2022-10-18T11:30:44.223Z,2.17
2022-10-18T11:34:03.707Z,1.70
2022-10-18T11:36:57.992Z,1.92
2022-10-18T11:39:50.071Z,1.65
2022-10-18T11:42:41.851Z,2.72
2022-10-18T11:46:00.277Z,1.58
2022-10-18T11:48:55.032Z,2.33
2022-10-18T11:54:51.991Z,1.63
2022-10-18T11:57:55.239Z,1.48
2022-10-18T12:00:53.381Z,1.30
2022-10-18T12:03:35.352Z,1.30
2022-10-18T12:06:13.656Z,1.48
2022-10-18T12:08:52.903Z,1.38
2022-10-18T12:11:30.700Z,1.20
2022-10-18T12:14:07.933Z,1.30
2022-10-18T12:17:20.238Z,1.33
2022-10-18T12:19:33.056Z,1.45
2022-10-18T12:22:20.319Z,2.55
2022-10-18T12:24:47.419Z,2.20
2022-10-18T12:27:18.678Z,2.08
2022-10-18T12:30:03.738Z,1.77
2022-10-18T12:32:36.705Z,1.83
2022-10-18T12:35:13.476Z,1.90
2022-10-18T12:38:15.927Z,2.00
2022-10-18T12:40:48.404Z,1.75
2022-10-18T12:43:26.592Z,1.77
2022-10-18T12:46:00.410Z,1.38
2022-10-18T12:48:45.587Z,1.50
2022-10-18T12:51:21.831Z,1.60
2022-10-18T12:54:00.741Z,1.10
2022-10-18T12:56:27.710Z,1.33
2022-10-18T12:59:16.340Z,1.15
2022-10-18T13:01:53.457Z,1.50
2022-10-18T13:04:32.544Z,1.55
2022-10-18T13:07:08.347Z,1.50
2022-10-18T13:09:39.967Z,1.50
2022-10-18T13:12:09.651Z,1.30
2022-10-18T13:15:05.996Z,1.10
2022-10-18T13:17:54.885Z,1.20
2022-10-18T13:20:54.450Z,1.35
2022-10-18T13:23:49.776Z,1.95
2022-10-18T13:26:40.296Z,1.70
2022-10-18T13:29:47.424Z,1.27
2022-10-18T13:32:35.499Z,1.60
2022-10-18T13:35:03.559Z,1.52
2022-10-18T13:37:31.057Z,1.25
2022-10-18T13:40:25.444Z,1.35
2022-10-18T13:42:52.509Z,1.17
2022-10-18T13:45:52.772Z,1.10
2022-10-18T13:48:31.859Z,1.15
2022-10-18T13:51:27.036Z,1.50
2022-10-18T13:54:23.229Z,1.23
2022-10-18T13:57:34.152Z,1.33
2022-10-18T14:00:36.508Z,1.15
2022-10-18T14:03:55.480Z,0.95
2022-10-18T14:06:25.135Z,1.10
2022-10-18T14:09:32.858Z,1.00
2022-10-18T14:12:44.825Z,1.48
2022-10-18T14:15:51.422Z,1.40
2022-10-18T14:18:36.361Z,1.48
2022-10-18T14:21:17.838Z,1.30
2022-10-18T14:23:51.312Z,1.35
2022-10-18T14:26:21.501Z,1.20
2022-10-18T14:29:07.717Z,2.17
2022-10-18T14:31:35.596Z,1.75
2022-10-18T14:34:04.290Z,1.83
2022-10-18T14:36:46.941Z,1.08
2022-10-18T14:39:27.053Z,1.23
2022-10-18T14:41:59.496Z,1.30
2022-10-18T14:44:34.879Z,1.20
2022-10-18T14:47:21.111Z,1.40
2022-10-18T14:49:50.389Z,1.60
2022-10-18T14:52:29.411Z,1.00
2022-10-18T14:55:00.800Z,1.23
2022-10-18T14:57:37.560Z,0.80
2022-10-18T15:00:17.127Z,1.08
2022-10-18T15:02:45.249Z,0.90
2022-10-18T15:05:25.601Z,0.90
2022-10-18T15:07:55.197Z,1.00
2022-10-18T15:10:32.645Z,0.88
2022-10-18T15:13:12.820Z,1.17
2022-10-18T15:15:43.633Z,1.13
2022-10-18T15:18:24.152Z,0.90
2022-10-18T15:21:23.847Z,1.33
2022-10-18T15:23:52.971Z,1.17
2022-10-18T15:26:30.322Z,1.40
2022-10-18T15:29:02.849Z,1.17
2022-10-18T15:31:44.555Z,1.63
2022-10-18T15:34:19.810Z,1.55
2022-10-18T15:36:49.853Z,1.40
2022-10-18T15:39:24.419Z,1.30
2022-10-18T15:41:57.290Z,1.02
2022-10-18T15:44:48.142Z,1.13
2022-10-18T15:47:23.891Z,0.80
2022-10-18T15:49:55.550Z,1.00
2022-10-18T15:52:38.226Z,0.90
2022-10-18T15:55:31.224Z,1.05
2022-10-18T15:58:25.344Z,0.80
2022-10-18T16:00:59.372Z,1.10
2022-10-18T16:03:28.796Z,0.70
2022-10-18T16:06:06.116Z,0.90
2022-10-18T16:08:41.249Z,0.95
2022-10-18T16:11:16.662Z,0.70
2022-10-18T16:13:45.509Z,1.15
2022-10-18T16:16:26.068Z,1.38
2022-10-18T16:18:54.612Z,0.88
2022-10-18T16:21:31.922Z,1.20
2022-10-18T16:24:00.187Z,1.30
2022-10-18T16:26:29.828Z,0.93
2022-10-18T16:28:59.816Z,1.05
2022-10-18T16:31:33.545Z,1.23
2022-10-18T16:34:03.094Z,1.30
2022-10-18T16:36:33.700Z,1.15
2022-10-18T16:39:12.153Z,1.13
2022-10-18T16:41:39.215Z,1.50
2022-10-18T16:44:06.199Z,1.00
2022-10-18T16:46:35.232Z,1.52
2022-10-18T16:51:47.303Z,1.55
2022-10-18T16:54:14.426Z,1.60
2022-10-18T16:56:41.479Z,1.45
2022-10-18T16:59:21.886Z,1.70
2022-10-18T17:01:48.962Z,1.20
2022-10-18T17:04:16.556Z,1.52
2022-10-18T17:06:43.970Z,1.25
2022-10-18T17:09:15.045Z,1.40
2022-10-18T17:11:45.493Z,1.98
2022-10-18T17:14:12.556Z,1.50
2022-10-18T17:16:39.702Z,1.27
2022-10-18T17:19:11.719Z,1.23
2022-10-18T17:21:38.719Z,1.77
2022-10-18T17:24:06.246Z,1.20
2022-10-18T17:26:34.739Z,1.80
2022-10-18T17:29:07.171Z,1.45
2022-10-18T17:31:35.874Z,1.38
2022-10-18T17:34:04.643Z,1.23
2022-10-18T17:36:33.635Z,1.20
2022-10-18T17:39:01.584Z,1.88
2022-10-18T17:41:30.630Z,2.78
2022-10-18T17:43:58.260Z,1.50
2022-10-18T17:46:25.417Z,1.70
2022-10-18T17:48:53.679Z,1.90
2022-10-18T17:51:20.988Z,2.13
2022-10-18T17:53:48.497Z,1.75
2022-10-18T17:56:16.948Z,1.77
2022-10-18T17:58:43.899Z,1.90
2022-10-18T18:01:21.283Z,2.33
2022-10-18T18:03:48.654Z,2.00
2022-10-18T18:06:39.014Z,2.22
2022-10-18T18:09:13.548Z,2.70
2022-10-18T18:11:43.833Z,2.30
2022-10-18T18:14:12.041Z,2.38
2022-10-18T18:16:43.016Z,2.20
2022-10-18T18:19:11.359Z,2.17
2022-10-18T18:21:40.294Z,2.25
2022-10-18T18:24:10.053Z,2.13
2022-10-18T18:26:38.936Z,2.40
2022-10-18T18:29:06.473Z,2.20
2022-10-18T18:31:38.873Z,2.30
2022-10-18T18:34:10.319Z,2.10
2022-10-18T18:36:37.723Z,2.38
2022-10-18T18:39:05.691Z,2.33
2022-10-18T18:41:33.280Z,2.03
2022-10-18T18:44:04.352Z,2.30
2022-10-18T18:46:38.313Z,2.30
2022-10-18T18:49:08.112Z,2.30
2022-10-18T18:51:40.129Z,2.85
2022-10-18T18:54:10.364Z,2.50
2022-10-18T18:56:38.060Z,3.20
2022-10-18T18:59:05.874Z,3.08
2022-10-18T19:01:37.041Z,3.15
2022-10-18T19:04:07.558Z,2.70
2022-10-18T19:06:38.715Z,3.38
2022-10-18T19:09:18.960Z,2.90
2022-10-18T19:11:48.594Z,2.97
2022-10-18T19:14:15.783Z,3.05
2022-10-18T19:16:55.088Z,2.88
2022-10-18T19:19:25.230Z,3.20
2022-10-18T19:22:00.215Z,2.65
2022-10-18T19:24:32.452Z,3.03
2022-10-18T19:27:12.519Z,2.80
2022-10-18T19:29:40.961Z,2.90
2022-10-18T19:32:15.093Z,2.63
2022-10-18T19:34:46.156Z,2.90
2022-10-18T19:37:16.115Z,2.90
2022-10-18T19:39:43.301Z,2.70
2022-10-18T19:42:16.002Z,3.20
2022-10-18T19:44:47.943Z,3.47
2022-10-18T19:47:14.972Z,3.80
2022-10-18T19:49:43.041Z,3.65
2022-10-18T19:52:12.251Z,4.25
2022-10-18T19:54:39.618Z,4.13
2022-10-18T19:57:07.819Z,4.20
2022-10-18T19:59:36.030Z,4.57
2022-10-18T20:02:06.955Z,3.92
2022-10-18T20:04:35.068Z,3.92
2022-10-18T20:07:02.768Z,3.65
2022-10-18T20:09:30.053Z,3.40
2022-10-18T20:11:57.081Z,3.45
2022-10-18T20:14:24.117Z,3.08
2022-10-18T20:16:51.175Z,3.17
2022-10-18T20:19:18.242Z,3.13
2022-10-18T20:21:45.245Z,2.80
2022-10-18T20:24:12.364Z,2.90
2022-10-18T20:26:39.770Z,2.88
2022-10-18T20:29:07.848Z,3.10
2022-10-18T20:31:38.392Z,2.83
2022-10-18T20:34:11.078Z,2.65
2022-10-18T20:36:38.378Z,2.63
2022-10-18T20:39:07.733Z,3.10
2022-10-18T20:41:41.135Z,3.08
2022-10-18T20:44:14.537Z,3.33
2022-10-18T20:46:42.370Z,3.70
2022-10-18T20:49:14.743Z,3.28
2022-10-18T20:51:42.199Z,3.70
2022-10-18T20:54:10.454Z,3.72
2022-10-18T20:56:39.171Z,3.00
2022-10-18T20:59:14.741Z,3.15
2022-10-18T21:01:43.062Z,2.88
2022-10-18T21:04:11.294Z,3.35
2022-10-18T21:06:43.159Z,3.45
2022-10-18T21:09:16.345Z,3.63
2022-10-18T21:11:49.811Z,3.67
2022-10-18T21:14:21.232Z,3.50
2022-10-18T21:16:50.880Z,3.78
2022-10-18T21:19:25.329Z,3.10
2022-10-18T21:24:25.989Z,3.90
2022-10-18T21:26:53.663Z,3.45
2022-10-18T21:29:24.735Z,3.28
2022-10-18T21:31:55.671Z,3.15
2022-10-18T21:34:22.803Z,2.90
2022-10-18T21:36:49.813Z,2.67
2022-10-18T21:39:21.343Z,2.72
2022-10-18T21:41:49.462Z,2.33
2022-10-18T21:44:18.210Z,2.63
2022-10-18T21:46:46.736Z,2.58
2022-10-18T21:49:15.584Z,2.67
2022-10-18T21:51:44.107Z,2.90
2022-10-18T21:54:14.506Z,2.72
2022-10-18T21:56:41.846Z,2.50
2022-10-18T21:59:14.035Z,2.55
2022-10-18T22:01:43.538Z,3.15
2022-10-18T22:04:23.845Z,3.20
2022-10-18T22:06:52.164Z,3.00
2022-10-18T22:09:21.058Z,3.00
2022-10-18T22:11:52.657Z,2.35
2022-10-18T22:14:20.853Z,2.25
2022-10-18T22:16:47.920Z,2.88
2022-10-18T22:19:15.100Z,2.20
2022-10-18T22:21:42.250Z,2.47
2022-10-18T22:24:10.423Z,2.67
2022-10-18T22:26:41.599Z,2.33
2022-10-18T22:29:15.166Z,2.88
2022-10-18T22:31:47.374Z,2.67
2022-10-18T22:34:22.285Z,2.28
2022-10-18T22:36:50.176Z,2.70
2022-10-18T22:39:17.954Z,2.78
2022-10-18T22:41:46.588Z,2.38
2022-10-18T22:44:14.759Z,2.45
2022-10-18T22:46:43.069Z,2.22
2022-10-18T22:49:11.638Z,2.30
2022-10-18T22:51:40.630Z,2.65
2022-10-18T22:54:07.941Z,3.13
2022-10-18T22:56:35.228Z,2.20
2022-10-18T22:59:02.224Z,2.67
2022-10-18T23:01:30.311Z,2.60
2022-10-18T23:04:00.002Z,2.55
2022-10-18T23:06:31.916Z,2.50
2022-10-18T23:09:02.179Z,2.30
2022-10-18T23:11:29.556Z,2.20
2022-10-18T23:13:57.114Z,2.83
2022-10-18T23:16:26.264Z,2.10
2022-10-18T23:18:56.815Z,2.22
2022-10-18T23:21:28.002Z,2.42
2022-10-18T23:23:56.748Z,1.88
2022-10-18T23:26:28.106Z,2.20
2022-10-18T23:28:56.271Z,2.42
2022-10-18T23:31:31.083Z,3.00
2022-10-18T23:34:04.943Z,2.63
2022-10-18T23:36:33.602Z,2.30
2022-10-18T23:39:00.984Z,2.72
2022-10-18T23:41:28.289Z,3.45
2022-10-18T23:43:55.424Z,2.90
2022-10-18T23:46:22.550Z,2.45
2022-10-18T23:48:50.297Z,2.33
2022-10-18T23:51:18.431Z,2.40
2022-10-18T23:53:45.674Z,2.47
2022-10-18T23:56:16.129Z,2.50
2022-10-18T23:58:45.135Z,2.80
